Time;durP1;ratioP1;P1;durP2;ratioP2;P2;SDS_P1;SDS_P2;PMS_P1;PMS_P2;Temp;Humidity;BMP_temperature;BMP_pressure;BME280_temperature;BME280_humidity;BME280_pressure;Samples;Min_cycle;Max_cycle;Signal;HPM_P1;HPM_P2
2023/09/12 00:00:59;;;;;;;0.88;0.88;;;20.20;99.90;;;;;;4973390;28;20080;-89
2023/09/12 00:03:40;;;;;;;1.20;1.10;;;20.20;99.90;;;;;;4969351;28;20065;-89
2023/09/12 00:06:12;;;;;;;0.80;0.80;;;19.80;99.90;;;;;;4969975;28;20084;-91
2023/09/12 00:09:02;;;;;;;0.80;0.80;;;20.20;99.90;;;;;;5001409;28;20747;-90
2023/09/12 00:11:40;;;;;;;;;;;19.70;99.90;;;;;;4969434;28;20684;-88
2023/09/12 00:14:23;;;;;;;0.90;0.90;;;19.80;99.90;;;;;;4968142;28;19922;-88
2023/09/12 00:16:55;;;;;;;0.80;0.80;;;19.90;99.90;;;;;;4966463;28;20050;-87
2023/09/12 00:19:26;;;;;;;0.77;0.77;;;19.90;99.90;;;;;;4989394;28;20057;-88
2023/09/12 00:21:55;;;;;;;0.90;0.90;;;20.20;99.90;;;;;;4985993;28;20069;-88
2023/09/12 00:24:33;;;;;;;0.80;0.80;;;20.00;99.90;;;;;;4979970;28;20057;-88
2023/09/12 00:29:59;;;;;;;0.80;0.80;;;19.90;99.90;;;;;;4980702;28;20089;-87
2023/09/12 00:32:29;;;;;;;0.85;0.85;;;19.90;99.90;;;;;;4983373;28;20046;-87
2023/09/12 00:34:55;;;;;;;0.90;0.90;;;19.90;99.90;;;;;;4984079;28;20054;-87
2023/09/12 00:37:34;;;;;;;0.90;0.90;;;20.00;99.90;;;;;;4968902;28;20049;-84
2023/09/12 00:40:00;;;;;;;1.00;1.00;;;19.80;99.90;;;;;;4980118;28;20079;-85
2023/09/12 00:42:28;;;;;;;0.90;0.90;;;19.60;99.90;;;;;;4981639;28;20421;-84
2023/09/12 00:44:57;;;;;;;1.00;1.00;;;19.80;99.90;;;;;;4963788;28;20046;-83
2023/09/12 00:47:28;;;;;;;1.50;1.40;;;19.60;99.90;;;;;;4999374;28;20045;-82
2023/09/12 00:49:56;;;;;;;1.10;1.10;;;19.40;99.90;;;;;;4983699;28;20054;-82
2023/09/12 00:52:27;;;;;;;1.10;1.10;;;19.50;99.90;;;;;;4980137;28;20644;-82
2023/09/12 00:54:54;;;;;;;1.35;1.35;;;19.30;99.90;;;;;;4983489;28;20057;-82
2023/09/12 00:57:21;;;;;;;1.38;1.35;;;19.80;99.90;;;;;;4981320;28;20057;-82
2023/09/12 00:59:49;;;;;;;1.67;1.58;;;19.40;99.90;;;;;;4979594;28;20688;-82
2023/09/12 01:02:15;;;;;;;1.45;1.38;;;19.70;99.90;;;;;;4980735;28;20050;-82
2023/09/12 01:04:42;;;;;;;1.60;1.50;;;19.70;99.90;;;;;;4964811;28;20046;-82
2023/09/12 01:07:07;;;;;;;3.53;3.33;;;19.60;99.90;;;;;;4978821;28;20108;-83
2023/09/12 01:09:33;;;;;;;1.85;1.75;;;19.90;99.90;;;;;;4981567;28;20046;-83
2023/09/12 01:12:02;;;;;;;1.98;1.88;;;19.80;99.90;;;;;;4982124;28;20042;-82
2023/09/12 01:14:28;;;;;;;1.75;1.65;;;19.80;99.90;;;;;;4982674;28;20046;-82
2023/09/12 01:16:55;;;;;;;1.60;1.50;;;19.90;99.90;;;;;;4981924;28;20521;-82
2023/09/12 01:19:20;;;;;;;1.65;1.55;;;19.40;99.90;;;;;;4980241;28;20637;-82
2023/09/12 01:22:17;;;;;;;1.67;1.58;;;19.40;99.90;;;;;;5006504;28;20093;-82
2023/09/12 01:24:59;;;;;;;1.85;1.75;;;19.80;99.90;;;;;;4984832;28;20045;-82
2023/09/12 01:27:28;;;;;;;1.85;1.75;;;19.60;99.90;;;;;;4987501;28;20058;-82
2023/09/12 01:29:57;;;;;;;1.88;1.77;;;19.30;99.90;;;;;;4986933;28;20057;-82
2023/09/12 01:32:23;;;;;;;1.83;1.73;;;19.40;99.90;;;;;;4972268;28;20038;-82
2023/09/12 01:34:49;;;;;;;1.88;1.77;;;19.70;99.90;;;;;;4986137;28;20083;-82
2023/09/12 01:37:15;;;;;;;2.00;1.90;;;19.30;99.90;;;;;;5006483;28;20705;-83
2023/09/12 01:39:41;;;;;;;2.05;1.95;;;19.20;99.90;;;;;;4971035;28;20049;-82
2023/09/12 01:42:10;;;;;;;1.65;1.55;;;19.60;99.90;;;;;;4987025;28;20111;-82
2023/09/12 01:44:37;;;;;;;1.60;1.50;;;19.20;99.90;;;;;;4988180;28;20057;-83
2023/09/12 01:47:05;;;;;;;1.80;1.70;;;19.30;99.90;;;;;;4985818;28;20054;-82
2023/09/12 01:49:32;;;;;;;1.73;1.63;;;19.60;99.90;;;;;;4984045;28;20065;-82
2023/09/12 01:51:59;;;;;;;1.70;1.60;;;19.50;99.90;;;;;;4985614;28;21305;-82
2023/09/12 01:54:27;;;;;;;1.70;1.60;;;19.60;99.90;;;;;;5010122;28;20053;-82
2023/09/12 01:56:57;;;;;;;1.65;1.55;;;19.30;99.90;;;;;;4985837;28;20631;-83
2023/09/12 01:59:30;;;;;;;1.65;1.55;;;19.30;99.90;;;;;;4986146;28;20073;-83
2023/09/12 02:01:59;;;;;;;1.65;1.55;;;19.10;99.90;;;;;;4973586;28;20493;-82
2023/09/12 02:04:25;;;;;;;1.63;1.52;;;19.40;99.90;;;;;;4984912;28;20042;-82
2023/09/12 02:06:51;;;;;;;1.70;1.60;;;19.40;99.90;;;;;;4983300;28;20096;-82
2023/09/12 02:09:16;;;;;;;1.65;1.55;;;19.70;99.90;;;;;;4986624;28;20064;-84
2023/09/12 02:11:45;;;;;;;1.75;1.65;;;19.60;99.90;;;;;;4988647;28;20090;-83
2023/09/12 02:14:11;;;;;;;1.80;1.70;;;19.20;99.90;;;;;;4969795;28;20133;-84
2023/09/12 02:16:39;;;;;;;1.88;1.77;;;19.20;99.90;;;;;;4969062;28;20192;-84
2023/09/12 02:19:08;;;;;;;1.65;1.55;;;19.10;99.90;;;;;;4985625;28;20041;-83
2023/09/12 02:21:34;;;;;;;1.73;1.63;;;19.60;99.90;;;;;;4984737;28;20046;-83
2023/09/12 02:24:02;;;;;;;1.73;1.63;;;19.30;99.90;;;;;;4989719;28;20077;-83
2023/09/12 02:26:28;;;;;;;1.52;1.42;;;19.20;99.90;;;;;;4989621;28;20045;-82
2023/09/12 02:28:54;;;;;;;1.50;1.42;;;19.60;99.90;;;;;;4984487;28;20046;-83
2023/09/12 02:31:19;;;;;;;1.67;1.58;;;19.30;99.90;;;;;;4985694;28;20455;-84
2023/09/12 02:33:45;;;;;;;1.67;1.58;;;19.60;99.90;;;;;;4985441;28;20061;-84
2023/09/12 02:36:13;;;;;;;1.67;1.58;;;19.70;99.90;;;;;;4986525;28;20054;-84
2023/09/12 02:38:39;;;;;;;1.60;1.50;;;19.70;99.90;;;;;;4986266;28;20065;-83
2023/09/12 02:41:05;;;;;;;1.73;1.63;;;19.60;99.90;;;;;;4991396;28;20081;-83
2023/09/12 02:43:32;;;;;;;2.15;2.05;;;19.10;99.90;;;;;;4986812;28;20050;-83
2023/09/12 02:46:00;;;;;;;1.80;1.70;;;19.10;99.90;;;;;;5009817;28;20113;-84
2023/09/12 02:48:32;;;;;;;1.80;1.70;;;19.50;99.90;;;;;;4991094;28;20112;-85
2023/09/12 02:50:58;;;;;;;1.90;1.80;;;19.50;99.90;;;;;;4999935;28;20411;-83
2023/09/12 02:53:30;;;;;;;4.78;4.47;;;19.40;99.90;;;;;;4987202;28;20054;-83
2023/09/12 02:55:56;;;;;;;1.75;1.65;;;19.20;99.90;;;;;;4987656;28;20073;-83
2023/09/12 02:58:22;;;;;;;1.95;1.85;;;19.20;99.90;;;;;;4985629;28;20074;-83
2023/09/12 03:00:50;;;;;;;4.55;4.25;;;19.50;99.90;;;;;;4990303;28;20064;-84
2023/09/12 03:03:17;;;;;;;1.95;1.85;;;19.50;99.90;;;;;;4988905;28;20058;-85
2023/09/12 03:05:42;;;;;;;1.85;1.75;;;19.30;99.90;;;;;;4985337;28;20053;-84
2023/09/12 03:08:08;;;;;;;1.90;1.80;;;19.30;99.90;;;;;;4973444;28;20054;-82
2023/09/12 03:10:34;;;;;;;1.83;1.73;;;18.90;99.90;;;;;;4983222;28;20046;-82
2023/09/12 03:12:59;;;;;;;4.88;4.57;;;18.90;99.90;;;;;;4984975;28;20046;-83
2023/09/12 03:15:25;;;;;;;1.80;1.70;;;18.70;99.90;;;;;;4986154;28;20046;-83
2023/09/12 03:17:51;;;;;;;1.67;1.58;;;18.70;99.90;;;;;;4983503;28;20046;-83
2023/09/12 03:20:16;;;;;;;1.73;1.63;;;18.40;99.90;;;;;;5003622;28;20046;-83
2023/09/12 03:22:42;;;;;;;1.52;1.42;;;18.50;99.90;;;;;;4988096;28;20038;-84
2023/09/12 03:25:08;;;;;;;1.40;1.35;;;18.60;99.90;;;;;;4986108;28;20050;-83
2023/09/12 03:27:34;;;;;;;3.55;3.35;;;18.70;99.90;;;;;;4987862;28;20068;-82
2023/09/12 03:29:59;;;;;;;1.73;1.63;;;18.60;99.90;;;;;;4986230;28;20060;-83
2023/09/12 03:32:25;;;;;;;1.30;1.30;;;18.40;99.90;;;;;;4984666;28;20057;-82
2023/09/12 03:34:51;;;;;;;1.42;1.38;;;18.70;99.90;;;;;;4982985;28;20058;-82
2023/09/12 03:37:16;;;;;;;1.33;1.30;;;18.80;99.90;;;;;;4987058;28;20451;-83
2023/09/12 03:39:42;;;;;;;1.33;1.30;;;19.00;99.90;;;;;;4985311;28;21099;-83
2023/09/12 03:42:07;;;;;;;1.33;1.30;;;18.90;99.90;;;;;;4972257;28;20525;-83
2023/09/12 03:44:33;;;;;;;1.33;1.30;;;18.70;99.90;;;;;;4972425;28;20053;-82
2023/09/12 03:46:59;;;;;;;1.25;1.25;;;18.90;99.90;;;;;;4985639;28;20276;-82
2023/09/12 03:49:25;;;;;;;1.38;1.35;;;18.80;99.90;;;;;;4969043;28;20045;-83
2023/09/12 03:51:51;;;;;;;1.27;1.27;;;18.90;99.90;;;;;;4987101;28;20060;-83
2023/09/12 03:54:16;;;;;;;1.35;1.33;;;19.20;99.90;;;;;;4985212;28;20111;-83
2023/09/12 03:56:42;;;;;;;1.45;1.38;;;18.80;99.90;;;;;;4965792;28;20492;-83
2023/09/12 03:59:08;;;;;;;1.27;1.27;;;18.80;99.90;;;;;;4986543;28;20049;-82
2023/09/12 04:01:34;;;;;;;1.23;1.23;;;19.20;99.90;;;;;;4970651;28;20395;-83
2023/09/12 04:04:00;;;;;;;0.93;0.93;;;18.90;99.90;;;;;;4983603;28;20057;-82
2023/09/12 04:06:25;;;;;;;1.27;1.27;;;19.10;99.90;;;;;;4985069;28;20447;-83
2023/09/12 04:08:51;;;;;;;1.25;1.25;;;19.40;99.90;;;;;;5004049;28;20042;-83
2023/09/12 04:11:17;;;;;;;1.50;1.40;;;19.40;99.90;;;;;;4982553;28;20045;-82
2023/09/12 04:13:43;;;;;;;0.93;0.93;;;19.00;99.90;;;;;;4981104;28;20052;-82
2023/09/12 04:16:09;;;;;;;1.05;1.05;;;19.20;99.90;;;;;;4982607;28;20046;-83
2023/09/12 04:18:35;;;;;;;0.93;0.93;;;19.40;99.90;;;;;;4997073;28;20050;-83
2023/09/12 04:21:00;;;;;;;1.02;1.02;;;19.30;99.90;;;;;;4995878;28;20046;-83
2023/09/12 04:23:26;;;;;;;1.52;1.42;;;19.40;99.90;;;;;;4982515;28;20166;-83
2023/09/12 04:25:52;;;;;;;1.30;1.30;;;19.40;99.90;;;;;;4978298;28;20038;-82
2023/09/12 04:28:17;;;;;;;1.17;1.17;;;19.30;99.90;;;;;;4994777;28;20049;-83
2023/09/12 04:30:43;;;;;;;1.15;1.15;;;19.60;99.90;;;;;;4984621;28;20045;-83
2023/09/12 04:33:09;;;;;;;1.35;1.33;;;19.60;99.90;;;;;;4968194;28;20447;-83
2023/09/12 04:35:35;;;;;;;1.23;1.23;;;19.60;99.90;;;;;;5001282;28;20692;-82
2023/09/12 04:38:01;;;;;;;1.45;1.38;;;19.40;99.90;;;;;;4987268;28;20049;-83
2023/09/12 04:40:27;;;;;;;1.25;1.25;;;19.10;99.90;;;;;;4968701;28;20041;-82
2023/09/12 04:42:53;;;;;;;1.52;1.42;;;19.50;99.90;;;;;;4984729;28;20046;-83
2023/09/12 04:45:19;;;;;;;1.55;1.45;;;19.30;99.90;;;;;;4984477;28;20056;-83
2023/09/12 04:47:45;;;;;;;1.48;1.40;;;19.70;99.90;;;;;;4965341;28;20647;-82
2023/09/12 04:50:11;;;;;;;1.60;1.50;;;19.60;99.90;;;;;;4982398;28;20119;-83
2023/09/12 04:52:39;;;;;;;1.45;1.38;;;19.10;99.90;;;;;;4970933;28;20049;-83
2023/09/12 04:55:05;;;;;;;1.65;1.55;;;19.10;99.90;;;;;;4983743;28;20054;-83
2023/09/12 04:57:32;;;;;;;1.67;1.58;;;19.30;99.90;;;;;;4993529;28;20052;-83
2023/09/12 04:59:58;;;;;;;1.67;1.58;;;19.50;99.90;;;;;;4988393;28;20062;-83
2023/09/12 05:02:25;;;;;;;1.70;1.60;;;19.30;99.90;;;;;;5007975;28;20057;-83
2023/09/12 05:04:51;;;;;;;1.83;1.73;;;19.60;99.90;;;;;;4986851;28;20060;-83
2023/09/12 05:07:20;;;;;;;1.75;1.65;;;19.10;99.90;;;;;;4986535;28;20042;-83
2023/09/12 05:09:45;;;;;;;1.85;1.75;;;19.40;99.90;;;;;;4970928;28;20060;-82
2023/09/12 05:12:11;;;;;;;2.05;1.95;;;19.20;99.90;;;;;;4987739;28;20148;-82
2023/09/12 05:14:36;;;;;;;2.00;1.90;;;19.10;99.90;;;;;;4986490;28;20052;-82
2023/09/12 05:17:02;;;;;;;2.15;2.05;;;19.60;99.90;;;;;;4985428;28;20057;-83
2023/09/12 05:19:30;;;;;;;2.17;2.08;;;19.50;99.90;;;;;;4989228;28;20048;-83
2023/09/12 05:21:55;;;;;;;2.08;1.98;;;19.40;99.90;;;;;;4990504;28;20046;-83
2023/09/12 05:24:24;;;;;;;2.15;2.05;;;19.10;99.90;;;;;;4990154;28;20037;-83
2023/09/12 05:26:50;;;;;;;2.10;2.00;;;19.10;99.90;;;;;;4986350;28;20112;-83
2023/09/12 05:29:15;;;;;;;3.10;2.90;;;19.30;99.90;;;;;;4987628;28;20825;-83
2023/09/12 05:31:41;;;;;;;1.30;1.30;;;19.10;99.90;;;;;;4987228;28;20049;-83
2023/09/12 05:34:07;;;;;;;2.70;2.55;;;19.40;99.90;;;;;;4971444;28;20406;-83
2023/09/12 05:36:35;;;;;;;2.55;2.45;;;18.90;99.90;;;;;;4976589;28;20049;-85
2023/09/12 05:39:03;;;;;;;2.70;2.55;;;19.10;99.90;;;;;;4994906;28;20046;-84
2023/09/12 05:41:35;;;;;;;3.33;3.13;;;19.30;99.90;;;;;;4970760;28;20076;-84
2023/09/12 05:44:07;;;;;;;3.40;3.20;;;19.30;99.90;;;;;;4982346;28;20046;-83
2023/09/12 05:46:36;;;;;;;3.70;3.50;;;19.20;99.90;;;;;;4987038;28;20050;-84
2023/09/12 05:49:08;;;;;;;3.50;3.30;;;19.30;99.90;;;;;;4968134;28;20107;-83
2023/09/12 05:51:39;;;;;;;2.63;2.50;;;19.20;99.90;;;;;;4986956;28;20061;-83
2023/09/12 05:54:05;;;;;;;0.77;0.77;;;19.60;99.90;;;;;;4970866;28;20041;-83
2023/09/12 05:56:33;;;;;;;0.80;0.80;;;19.20;99.90;;;;;;4988799;28;20046;-83
2023/09/12 05:58:59;;;;;;;0.70;0.70;;;19.50;99.90;;;;;;4986013;28;20077;-84
2023/09/12 06:01:25;;;;;;;0.70;0.70;;;19.60;99.90;;;;;;4988555;28;20505;-83
2023/09/12 06:03:51;;;;;;;0.60;0.60;;;19.50;99.90;;;;;;4989648;28;20161;-83
2023/09/12 06:06:19;;;;;;;0.65;0.65;;;19.80;99.90;;;;;;5006135;28;20069;-82
2023/09/12 06:08:45;;;;;;;0.70;0.70;;;19.90;99.90;;;;;;4988600;28;20518;-83
2023/09/12 06:11:13;;;;;;;0.68;0.68;;;19.90;99.90;;;;;;4987755;28;20046;-83
2023/09/12 06:13:41;;;;;;;0.60;0.60;;;19.60;99.90;;;;;;4975863;28;20095;-84
2023/09/12 06:16:07;;;;;;;0.65;0.65;;;19.40;99.90;;;;;;4968142;28;20125;-84
2023/09/12 06:18:35;;;;;;;0.70;0.70;;;19.90;99.90;;;;;;4989885;28;20554;-84
2023/09/12 06:21:24;;;;;;;0.70;0.70;;;19.60;99.90;;;;;;4973779;28;20057;-83
2023/09/12 06:24:10;;;;;;;0.70;0.70;;;19.50;99.90;;;;;;4971996;28;20064;-83
2023/09/12 06:26:38;;;;;;;0.70;0.70;;;19.80;99.90;;;;;;4988364;28;20601;-85
2023/09/12 06:29:04;;;;;;;0.60;0.60;;;19.60;99.90;;;;;;4985084;28;20189;-83
2023/09/12 06:31:30;;;;;;;0.63;0.63;;;19.70;99.90;;;;;;4991269;28;20048;-85
2023/09/12 06:33:59;;;;;;;0.60;0.60;;;19.60;99.90;;;;;;4990209;28;20411;-85
2023/09/12 06:36:25;;;;;;;0.60;0.60;;;19.90;99.90;;;;;;5000489;28;20068;-85
2023/09/12 06:38:51;;;;;;;0.60;0.60;;;19.50;99.90;;;;;;4982253;28;20042;-86
2023/09/12 06:41:24;;;;;;;0.63;0.63;;;19.90;99.90;;;;;;4991908;28;20046;-86
2023/09/12 06:43:52;;;;;;;0.60;0.60;;;19.80;99.90;;;;;;4970876;28;20046;-84
2023/09/12 06:46:20;;;;;;;0.60;0.60;;;19.60;99.90;;;;;;4970111;28;20041;-84
2023/09/12 06:48:55;;;;;;;0.60;0.60;;;19.70;99.90;;;;;;4986672;28;20705;-87
2023/09/12 06:51:26;;;;;;;0.70;0.70;;;19.90;99.90;;;;;;4986293;28;20042;-85
2023/09/12 06:53:52;;;;;;;0.60;0.60;;;20.00;99.90;;;;;;4969933;28;20038;-88
2023/09/12 06:56:21;;;;;;;0.60;0.60;;;20.10;99.90;;;;;;4991961;28;20045;-85
2023/09/12 06:58:50;;;;;;;0.60;0.60;;;19.90;99.90;;;;;;4984371;28;20050;-85
2023/09/12 07:01:16;;;;;;;0.60;0.60;;;20.00;99.90;;;;;;4987516;28;20081;-86
2023/09/12 07:03:41;;;;;;;0.60;0.60;;;19.80;99.90;;;;;;4972530;28;20061;-85
2023/09/12 07:06:08;;;;;;;0.60;0.60;;;19.70;99.90;;;;;;4984486;28;20073;-85
2023/09/12 07:08:36;;;;;;;0.60;0.60;;;19.70;99.90;;;;;;4972133;28;20054;-86
2023/09/12 07:11:05;;;;;;;0.60;0.60;;;19.80;99.90;;;;;;4992265;28;20041;-85
2023/09/12 07:13:34;;;;;;;0.60;0.60;;;19.80;99.90;;;;;;4972270;28;20399;-86
2023/09/12 07:16:06;;;;;;;0.60;0.60;;;19.50;99.90;;;;;;4975671;28;20491;-87
2023/09/12 07:18:32;;;;;;;0.60;0.60;;;19.70;99.90;;;;;;4992521;28;20125;-87
2023/09/12 07:21:03;;;;;;;0.80;0.80;;;19.60;99.90;;;;;;4968273;28;20125;-88
2023/09/12 07:23:29;;;;;;;0.60;0.60;;;19.70;99.90;;;;;;4991531;28;20041;-87
2023/09/12 07:25:57;;;;;;;0.57;0.57;;;19.80;99.90;;;;;;4969548;28;20151;-87
2023/09/12 07:28:34;;;;;;;0.50;0.50;;;19.80;99.90;;;;;;4970666;28;20245;-87
2023/09/12 07:31:06;;;;;;;0.60;0.60;;;19.80;99.90;;;;;;4969378;28;20514;-86
2023/09/12 07:33:38;;;;;;;0.50;0.50;;;19.80;99.90;;;;;;4976120;28;20818;-86
2023/09/12 07:36:16;;;;;;;0.50;0.50;;;20.20;99.90;;;;;;4968854;28;20038;-86
2023/09/12 07:38:42;;;;;;;0.50;0.50;;;20.10;99.90;;;;;;4990465;28;20054;-86
2023/09/12 07:41:11;;;;;;;0.50;0.50;;;20.30;99.90;;;;;;4970551;28;20053;-87
2023/09/12 07:43:42;;;;;;;0.60;0.60;;;20.10;99.90;;;;;;4974572;28;20615;-87
2023/09/12 07:46:08;;;;;;;0.50;0.50;;;20.40;99.90;;;;;;4989458;28;20510;-85
2023/09/12 07:48:39;;;;;;;0.50;0.50;;;20.30;99.90;;;;;;4967887;28;20128;-85
2023/09/12 07:51:17;;;;;;;0.50;0.50;;;20.50;99.90;;;;;;4970879;28;20115;-85
2023/09/12 07:53:48;;;;;;;0.50;0.50;;;20.50;99.90;;;;;;4970215;28;20474;-86
2023/09/12 07:56:20;;;;;;;0.50;0.50;;;20.40;99.90;;;;;;4968314;28;20052;-85
2023/09/12 07:59:12;;;;;;;0.50;0.50;;;20.30;99.90;;;;;;4985748;28;20060;-86
2023/09/12 08:01:43;;;;;;;0.50;0.50;;;20.40;99.90;;;;;;4985898;28;20053;-86
2023/09/12 08:04:35;;;;;;;0.50;0.50;;;20.40;99.90;;;;;;4966381;28;20399;-84
2023/09/12 08:07:01;;;;;;;0.50;0.50;;;20.40;99.90;;;;;;4889474;29;20063;-85
2023/09/12 08:09:55;;;;;;;0.50;0.50;;;20.60;99.90;;;;;;4903994;29;20063;-86
2023/09/12 08:12:26;;;;;;;0.50;0.50;;;20.70;99.90;;;;;;4912362;29;20048;-87
2023/09/12 08:15:06;;;;;;;0.50;0.50;;;20.80;99.90;;;;;;4895501;29;20506;-85
2023/09/12 08:17:38;;;;;;;0.50;0.50;;;20.70;99.90;;;;;;4898647;29;20098;-86
2023/09/12 08:20:09;;;;;;;0.50;0.50;;;20.70;99.90;;;;;;4914484;29;20134;-86
2023/09/12 08:22:38;;;;;;;0.50;0.50;;;20.70;99.90;;;;;;4917484;29;20055;-83
2023/09/12 08:25:25;;;;;;;0.50;0.50;;;20.60;99.90;;;;;;4951716;28;20050;-85
2023/09/12 08:27:53;;;;;;;0.50;0.50;;;20.90;99.90;;;;;;4948583;28;20050;-84
2023/09/12 08:30:22;;;;;;;0.50;0.50;;;20.80;99.90;;;;;;4989970;28;20460;-84
2023/09/12 08:32:57;;;;;;;0.50;0.50;;;20.80;99.90;;;;;;4976255;28;20056;-85
2023/09/12 08:35:26;;;;;;;0.50;0.50;;;21.00;99.90;;;;;;4991489;28;20591;-86
2023/09/12 08:37:58;;;;;;;0.52;0.52;;;20.80;99.90;;;;;;4972836;28;20049;-90
2023/09/12 08:40:24;;;;;;;1.50;1.23;;;20.90;99.90;;;;;;4978486;28;20058;-91
2023/09/12 08:43:05;;;;;;;0.47;0.47;;;20.90;99.90;;;;;;4978047;28;20056;-92
2023/09/12 08:45:40;;;;;;;0.43;0.43;;;20.90;99.90;;;;;;4976147;28;20052;-86
2023/09/12 08:48:13;;;;;;;0.40;0.40;;;21.00;99.90;;;;;;4979464;28;20059;-87
2023/09/12 08:50:42;;;;;;;0.50;0.50;;;20.90;99.90;;;;;;4975424;28;20084;-87
2023/09/12 08:53:22;;;;;;;0.40;0.40;;;20.90;99.90;;;;;;4974275;28;20071;-86
2023/09/12 08:55:52;;;;;;;0.40;0.40;;;21.00;99.90;;;;;;4970557;28;20057;-84
2023/09/12 08:58:28;;;;;;;0.45;0.45;;;21.00;99.90;;;;;;4980769;28;20087;-86
2023/09/12 09:01:12;;;;;;;0.43;0.43;;;21.00;99.90;;;;;;5011390;28;20511;-86
2023/09/12 09:03:43;;;;;;;0.63;0.63;;;21.10;99.90;;;;;;4993488;28;20042;-89
2023/09/12 09:06:13;;;;;;;0.40;0.40;;;21.10;99.90;;;;;;4968641;28;20735;-87
2023/09/12 09:08:43;;;;;;;0.40;0.40;;;21.20;99.90;;;;;;4987080;28;20104;-84
2023/09/12 09:11:15;;;;;;;0.40;0.40;;;21.20;99.90;;;;;;4975399;28;20058;-85
2023/09/12 09:13:44;;;;;;;0.75;0.75;;;21.40;99.90;;;;;;4989130;28;20096;-86
2023/09/12 09:16:21;;;;;;;0.40;0.40;;;21.50;99.90;;;;;;4977039;28;20519;-87
2023/09/12 09:19:10;;;;;;;0.40;0.40;;;21.50;99.90;;;;;;4976730;28;20053;-88
2023/09/12 09:21:45;;;;;;;0.50;0.50;;;21.60;99.90;;;;;;4989690;28;20052;-85
2023/09/12 09:24:18;;;;;;;0.50;0.50;;;21.70;99.90;;;;;;4989294;28;20042;-86
2023/09/12 09:27:02;;;;;;;0.40;0.40;;;21.70;99.90;;;;;;4971546;28;20038;-86
2023/09/12 09:29:32;;;;;;;0.40;0.40;;;21.70;99.90;;;;;;4986180;28;20049;-87
2023/09/12 09:32:21;;;;;;;0.50;0.50;;;21.70;99.90;;;;;;4978067;28;20550;-86
2023/09/12 09:34:53;;;;;;;0.50;0.50;;;21.70;99.90;;;;;;4984988;28;20054;-88
2023/09/12 09:37:22;;;;;;;0.40;0.40;;;21.80;99.90;;;;;;4974020;28;20049;-86
2023/09/12 09:39:52;;;;;;;0.40;0.40;;;21.80;99.90;;;;;;4988342;28;20143;-86
2023/09/12 09:42:20;;;;;;;0.40;0.40;;;21.80;99.90;;;;;;4975002;28;20057;-87
2023/09/12 09:44:47;;;;;;;0.40;0.40;;;21.80;99.90;;;;;;4990604;28;20038;-86
2023/09/12 09:47:17;;;;;;;0.40;0.40;;;21.90;99.90;;;;;;4990797;28;20698;-86
2023/09/12 09:49:46;;;;;;;0.50;0.50;;;21.90;99.90;;;;;;4995343;28;20180;-86
2023/09/12 09:52:15;;;;;;;0.40;0.40;;;22.10;99.90;;;;;;4981338;28;20054;-86
2023/09/12 09:54:47;;;;;;;0.40;0.40;;;22.30;99.90;;;;;;4974312;28;20534;-88
2023/09/12 09:57:13;;;;;;;0.50;0.50;;;22.40;99.90;;;;;;4980927;28;20045;-86
2023/09/12 09:59:39;;;;;;;0.40;0.40;;;22.50;99.90;;;;;;4993392;28;20568;-87
2023/09/12 10:02:21;;;;;;;0.50;0.50;;;22.60;99.90;;;;;;4979941;28;20088;-88
2023/09/12 10:05:04;;;;;;;0.50;0.50;;;22.60;99.90;;;;;;5009220;28;20084;-87
2023/09/12 10:07:40;;;;;;;0.60;0.60;;;22.90;99.90;;;;;;4974803;28;20054;-87
2023/09/12 10:10:24;;;;;;;0.70;0.70;;;22.90;99.90;;;;;;4990722;28;20061;-86
2023/09/12 10:12:53;;;;;;;0.80;0.80;;;23.10;99.90;;;;;;4989368;28;20052;-85
2023/09/12 10:15:24;;;;;;;0.32;0.32;;;23.10;99.90;;;;;;4987890;28;20054;-85
2023/09/12 10:17:57;;;;;;;0.93;0.93;;;23.00;99.90;;;;;;4989916;28;20099;-86
2023/09/12 10:20:36;;;;;;;0.47;0.30;;;23.00;99.90;;;;;;4992188;28;20054;-85
2023/09/12 10:23:43;;;;;;;1.25;1.25;;;23.00;99.90;;;;;;4989114;28;20060;-88
2023/09/12 10:26:11;;;;;;;1.38;1.35;;;22.80;99.90;;;;;;4980395;28;20045;-88
2023/09/12 10:28:47;;;;;;;0.30;0.30;;;23.20;99.90;;;;;;4978621;28;20491;-87
2023/09/12 10:31:16;;;;;;;0.40;0.40;;;23.50;99.90;;;;;;4991193;28;20037;-88
2023/09/12 10:33:44;;;;;;;0.30;0.30;;;23.30;99.90;;;;;;4977598;28;20080;-87
2023/09/12 10:36:24;;;;;;;0.30;0.30;;;23.50;99.90;;;;;;4999046;28;20096;-90
2023/09/12 10:38:57;;;;;;;1.23;1.23;;;23.90;99.90;;;;;;4974346;28;20137;-85
2023/09/12 10:41:27;;;;;;;0.30;0.30;;;24.50;99.90;;;;;;5010261;28;20050;-88
2023/09/12 10:44:02;;;;;;;0.68;0.68;;;24.90;99.90;;;;;;4972676;28;20586;-87
2023/09/12 10:46:32;;;;;;;0.30;0.30;;;25.00;99.90;;;;;;5005642;28;20129;-86
2023/09/12 10:49:00;;;;;;;0.35;0.35;;;25.00;99.90;;;;;;4991659;28;20144;-87
2023/09/12 10:51:34;;;;;;;0.50;0.50;;;24.50;99.90;;;;;;4993232;28;20049;-89
2023/09/12 10:54:00;;;;;;;0.47;0.40;;;24.90;99.90;;;;;;4991853;28;20041;-89
2023/09/12 10:56:32;;;;;;;0.30;0.30;;;24.80;99.90;;;;;;5000484;28;20054;-89
2023/09/12 10:59:03;;;;;;;0.30;0.30;;;24.90;99.90;;;;;;4990956;28;20511;-88
2023/09/12 11:01:45;;;;;;;0.30;0.30;;;25.10;99.90;;;;;;4986926;28;20121;-87
2023/09/12 11:04:37;;;;;;;0.30;0.30;;;25.20;99.90;;;;;;4935001;28;20073;-89
2023/09/12 11:07:35;;;;;;;0.35;0.35;;;25.50;99.90;;;;;;4986085;28;20515;-84
2023/09/12 11:10:15;;;;;;;0.30;0.30;;;25.70;99.90;;;;;;4986596;28;20061;-85
2023/09/12 11:12:44;;;;;;;0.40;0.38;;;25.90;99.90;;;;;;4976247;28;20145;-89
2023/09/12 11:15:15;;;;;;;0.30;0.30;;;26.00;99.90;;;;;;4990499;28;20104;-86
2023/09/12 11:17:43;;;;;;;0.50;0.50;;;26.10;99.90;;;;;;4986226;28;20045;-85
2023/09/12 11:20:44;;;;;;;0.30;0.30;;;26.20;99.90;;;;;;4995871;28;20056;-87
2023/09/12 11:23:16;;;;;;;0.30;0.30;;;25.80;99.90;;;;;;4973004;28;20135;-85
2023/09/12 11:25:45;;;;;;;0.30;0.30;;;25.80;99.90;;;;;;4986670;28;20435;-85
2023/09/12 11:28:14;;;;;;;0.35;0.35;;;26.40;99.90;;;;;;4983985;28;20050;-87
2023/09/12 11:30:57;;;;;;;0.30;0.30;;;26.50;99.90;;;;;;4991152;28;20061;-87
2023/09/12 11:33:24;;;;;;;0.30;0.30;;;25.80;99.90;;;;;;4973595;28;20159;-85
2023/09/12 11:35:54;;;;;;;0.30;0.30;;;25.80;99.90;;;;;;4967794;28;20049;-84
2023/09/12 11:38:38;;;;;;;0.30;0.30;;;25.50;99.90;;;;;;5002836;28;20066;-86
2023/09/12 11:41:04;;;;;;;0.30;0.30;;;25.80;99.90;;;;;;4987515;28;20053;-85
2023/09/12 11:43:55;;;;;;;0.30;0.30;;;25.80;99.90;;;;;;4969156;28;20115;-86
2023/09/12 11:46:26;;;;;;;0.30;0.30;;;25.60;99.90;;;;;;4924768;28;20060;-87
2023/09/12 11:49:01;;;;;;;0.30;0.30;;;25.50;99.90;;;;;;4977645;28;20068;-86
2023/09/12 11:51:26;;;;;;;0.40;0.40;;;25.70;99.90;;;;;;4986601;28;20060;-88
2023/09/12 11:53:59;;;;;;;0.30;0.30;;;25.60;99.90;;;;;;4973573;28;20050;-86
2023/09/12 11:56:33;;;;;;;0.30;0.30;;;26.20;99.90;;;;;;4973370;28;20064;-89
2023/09/12 11:59:02;;;;;;;0.30;0.30;;;26.40;99.90;;;;;;4968929;28;20295;-87
2023/09/12 12:01:30;;;;;;;0.30;0.30;;;26.40;99.90;;;;;;4987771;28;20053;-89
2023/09/12 12:03:56;;;;;;;0.30;0.30;;;26.50;99.90;;;;;;4985083;28;20500;-90
2023/09/12 12:06:30;;;;;;;0.30;0.30;;;26.60;99.90;;;;;;4972655;28;20050;-86
2023/09/12 12:08:58;;;;;;;0.30;0.30;;;26.80;99.90;;;;;;5006110;28;20053;-87
2023/09/12 12:11:28;;;;;;;0.30;0.30;;;26.20;99.90;;;;;;4983809;28;20046;-88
2023/09/12 12:14:00;;;;;;;0.30;0.30;;;26.80;99.90;;;;;;4984960;28;20096;-90
2023/09/12 12:16:25;;;;;;;0.28;0.28;;;26.90;99.90;;;;;;4999720;28;20651;-86
2023/09/12 12:18:55;;;;;;;0.30;0.30;;;26.70;99.90;;;;;;4992528;28;20049;-88
2023/09/12 12:21:42;;;;;;;0.30;0.30;;;25.90;99.90;;;;;;4985514;28;20726;-87
2023/09/12 12:24:20;;;;;;;1.55;1.05;;;25.60;99.90;;;;;;4986802;28;20172;-87
2023/09/12 12:26:54;;;;;;;0.30;0.30;;;25.80;99.90;;;;;;4969209;28;20551;-91
2023/09/12 12:29:33;;;;;;;0.30;0.30;;;25.50;99.90;;;;;;4971664;28;20049;-91
2023/09/12 12:32:09;;;;;;;0.30;0.30;;;26.40;99.90;;;;;;4971484;28;20406;-89
2023/09/12 12:34:38;;;;;;;0.30;0.30;;;26.90;99.90;;;;;;4980741;28;20141;-87
2023/09/12 12:37:11;;;;;;;0.55;0.30;;;27.20;99.90;;;;;;4970220;28;20042;-88
2023/09/12 12:39:43;;;;;;;0.30;0.30;;;27.40;99.90;;;;;;4989165;28;20188;-91
2023/09/12 12:42:09;;;;;;;0.30;0.30;;;27.50;99.90;;;;;;4973592;28;20045;-90
2023/09/12 12:45:10;;;;;;;0.30;0.30;;;27.40;99.90;;;;;;4971386;28;20108;-93
2023/09/12 12:47:39;;;;;;;0.30;0.30;;;26.10;99.90;;;;;;4945683;28;20107;-93
2023/09/12 12:50:20;;;;;;;0.30;0.30;;;26.10;99.90;;;;;;4973055;28;20045;-94
2023/09/12 12:53:13;;;;;;;0.30;0.30;;;26.60;99.90;;;;;;4989671;28;20052;-90
2023/09/12 12:55:43;;;;;;;0.30;0.30;;;26.50;99.90;;;;;;4968828;28;20054;-90
2023/09/12 12:58:12;;;;;;;0.30;0.30;;;26.60;99.90;;;;;;4983839;28;20070;-90
2023/09/12 13:00:51;;;;;;;0.30;0.30;;;26.70;99.90;;;;;;4969900;28;20058;-92
2023/09/12 13:03:19;;;;;;;0.30;0.30;;;26.50;99.90;;;;;;4987740;28;20174;-90
2023/09/12 13:05:45;;;;;;;0.30;0.30;;;25.90;99.90;;;;;;4973223;28;20119;-89
2023/09/12 13:08:20;;;;;;;0.30;0.30;;;26.10;99.90;;;;;;4969689;28;20054;-92